メインページ
METAR-TAF:

METAR-TAF

空港 :

Lankaran, アゼルバイジャン

緯度: 38-44-47N, 経度: 048-49-04E, 海抜: 9m

現時点の気象観測

当レポートは47分前の05:00(UTC)に作成
南東の風 7kt
気温 12°C
湿度 100%
気圧 1018 hPa
視程: 3700m
高度500ftの曇り
小雨

METAR: UBBL 040500Z 13007KT 3700 -RA OVC005 12/12 Q1018 R33/CLRD// NOSIG RMK MT OBSC

時間: 09:47 (05:47 UTC)

予報

当レポートは40分前の05:07(UTC)に作成
予報は04日の 06時(UTC)から 05日の 06時(UTC)まで有効
東/南東の風 8kt
視程: 6000m
高度1000ftの曇り
04日の 06時(UTC)から 04日の 14時(UTC)まで一時的に
東/北東の風 10kt
視程: 3000m
高度400ftの曇り
高度2000ftの曇り
小雨
04日の 14時(UTC)から 04日の 16時(UTC)まで徐々に
北/北東の風 12kt
04日の 16時(UTC)から 05日の 04時(UTC)まで一時的に
変向風 4kt
視程: 2000m
高度400ftの千切れ雲あり
小雨, 靄

TAF: UBBL 040507Z 0406/0506 12008KT 6000 OVC010 TX14/0410Z TN10/0502Z TEMPO 0406/0414 07010KT 3000 -RA OVC004 OVC020 BECMG 0414/0416 03012KT TEMPO 0416/0504 VRB04KT 2000 -RA BR BKN004

4,000以上の空港の気象観測と天気予報(METAR報とTAF報)

利用可能な観測所は地図上に黄色い丸と赤い丸で示す。

丸の上にカーソルを重ねると観測所名を参照できる。

次にクリックすると気象観測と天気予報を参照できる。

マップの切り替え:黒色「×」印の緑ボタンをクリックして拡大、「-」印の緑ボタンをクリックして縮小、緑色の三角印をクリックして隣りの地図に切り替え


METAR-TAF: